createdAt,value
2023-03-05T00:00:40.392Z,43.09
2023-03-05T00:03:06.769Z,42.36
2023-03-05T00:05:33.180Z,41.62
2023-03-05T00:07:59.588Z,43.06
2023-03-05T00:10:25.974Z,38.48
2023-03-05T00:12:52.406Z,37.76
2023-03-05T00:15:18.830Z,36.71
2023-03-05T00:17:45.226Z,36.55
2023-03-05T00:20:11.774Z,40.27
2023-03-05T00:22:38.165Z,38.52
2023-03-05T00:25:04.606Z,39.69
2023-03-05T00:27:31.078Z,39.65
2023-03-05T00:29:57.499Z,39.27
2023-03-05T00:32:23.941Z,37.09
2023-03-05T00:34:50.456Z,37.38
2023-03-05T00:37:16.940Z,37.40
2023-03-05T00:39:43.331Z,38.19
2023-03-05T00:42:09.708Z,37.73
2023-03-05T00:44:36.076Z,37.39
2023-03-05T00:47:02.631Z,34.97
2023-03-05T00:49:29.067Z,36.57
2023-03-05T00:51:55.583Z,35.25
2023-03-05T00:54:22.007Z,35.11
2023-03-05T00:56:48.432Z,34.13
2023-03-05T00:59:14.845Z,33.96
2023-03-05T01:01:41.332Z,34.44
2023-03-05T01:04:07.752Z,34.27
2023-03-05T01:06:34.184Z,33.51
2023-03-05T01:09:00.580Z,34.93
2023-03-05T01:11:27.026Z,35.16
2023-03-05T01:13:53.450Z,34.89
2023-03-05T01:16:19.912Z,35.15
2023-03-05T01:18:46.389Z,34.55
2023-03-05T01:21:12.768Z,34.84
2023-03-05T01:23:39.229Z,36.38
2023-03-05T01:26:05.950Z,37.47
2023-03-05T01:28:32.451Z,36.79
2023-03-05T01:30:58.982Z,35.93
2023-03-05T01:33:25.410Z,36.98
2023-03-05T01:35:51.905Z,40.70
2023-03-05T01:38:18.294Z,39.54
2023-03-05T01:40:44.657Z,41.14
2023-03-05T01:43:11.058Z,41.25
2023-03-05T01:45:37.539Z,43.09
2023-03-05T01:48:04.081Z,43.42
2023-03-05T01:50:30.460Z,41.95
2023-03-05T01:52:56.879Z,42.55
2023-03-05T01:55:23.287Z,41.86
2023-03-05T01:57:49.691Z,43.52
2023-03-05T02:00:16.090Z,43.13
2023-03-05T02:02:42.503Z,43.74
2023-03-05T02:05:08.898Z,44.05
2023-03-05T02:07:35.322Z,44.29
2023-03-05T02:10:01.835Z,44.38
2023-03-05T02:12:28.263Z,45.05
2023-03-05T02:14:54.645Z,45.63
2023-03-05T02:17:21.029Z,44.69
2023-03-05T02:19:47.438Z,44.75
2023-03-05T02:22:13.981Z,46.09
2023-03-05T02:24:40.414Z,46.66
2023-03-05T02:27:06.845Z,45.71
2023-03-05T02:29:33.232Z,44.23
2023-03-05T02:31:59.795Z,44.97
2023-03-05T02:34:26.237Z,44.78
2023-03-05T02:36:52.621Z,45.31
2023-03-05T02:39:19.032Z,44.20
2023-03-05T02:41:45.454Z,44.16
2023-03-05T02:44:11.848Z,44.45
2023-03-05T02:46:38.215Z,45.71
2023-03-05T02:49:04.646Z,45.32
2023-03-05T02:51:31.375Z,43.60
2023-03-05T02:53:57.832Z,43.28
2023-03-05T02:56:24.256Z,43.65
2023-03-05T02:58:50.657Z,43.06
2023-03-05T03:01:17.088Z,42.14
2023-03-05T03:03:43.597Z,42.52
2023-03-05T03:06:10.065Z,40.67
2023-03-05T03:08:36.570Z,36.23
2023-03-05T03:11:02.931Z,38.22
2023-03-05T03:13:29.341Z,39.93
2023-03-05T03:15:55.705Z,41.18
2023-03-05T03:18:22.116Z,39.32
2023-03-05T03:20:48.549Z,38.70
2023-03-05T03:23:14.982Z,41.71
2023-03-05T03:25:41.415Z,40.69
2023-03-05T03:28:07.814Z,36.17
2023-03-05T03:30:34.458Z,36.73
2023-03-05T03:33:00.970Z,36.74
2023-03-05T03:35:27.413Z,34.76
2023-03-05T03:37:53.902Z,32.37
2023-03-05T03:40:20.330Z,32.13
2023-03-05T03:42:46.722Z,33.41
2023-03-05T03:45:13.109Z,33.14
2023-03-05T03:47:39.558Z,32.70
2023-03-05T03:50:06.064Z,34.47
2023-03-05T03:52:32.476Z,35.49
2023-03-05T03:54:58.921Z,34.68
2023-03-05T03:57:25.330Z,34.56
2023-03-05T03:59:51.761Z,34.88
2023-03-05T04:02:18.202Z,35.78
2023-03-05T04:04:44.720Z,37.02
2023-03-05T04:07:11.185Z,38.75
2023-03-05T04:09:37.603Z,37.10
2023-03-05T04:12:04.038Z,37.85
2023-03-05T04:14:30.431Z,38.37
2023-03-05T04:16:56.810Z,39.01
2023-03-05T04:19:23.232Z,38.76
2023-03-05T04:21:49.689Z,39.01
2023-03-05T04:24:16.359Z,39.92
2023-03-05T04:26:42.748Z,39.14
2023-03-05T04:29:09.174Z,39.23
2023-03-05T04:31:35.670Z,39.70
2023-03-05T04:34:02.132Z,39.97
2023-03-05T04:36:28.747Z,40.43
2023-03-05T04:38:55.255Z,40.16
2023-03-05T04:41:21.672Z,41.37
2023-03-05T04:43:48.046Z,42.25
2023-03-05T04:46:14.500Z,42.09
2023-03-05T04:48:40.911Z,41.54
2023-03-05T04:51:07.357Z,42.48
2023-03-05T04:53:33.778Z,42.75
2023-03-05T04:56:00.145Z,42.59
2023-03-05T04:58:26.608Z,43.13
2023-03-05T05:00:53.018Z,43.42
2023-03-05T05:03:19.412Z,44.17
2023-03-05T05:05:45.833Z,43.00
2023-03-05T05:08:12.206Z,43.63
2023-03-05T05:10:38.620Z,44.13
2023-03-05T05:13:05.181Z,43.50
2023-03-05T05:15:31.645Z,43.60
2023-03-05T05:17:58.056Z,43.96
2023-03-05T05:20:24.446Z,44.23
2023-03-05T05:22:50.855Z,44.43
2023-03-05T05:25:17.266Z,44.19
2023-03-05T05:27:43.776Z,43.10
2023-03-05T05:30:10.206Z,44.06
2023-03-05T05:32:36.772Z,44.13
2023-03-05T05:35:03.299Z,43.82
2023-03-05T05:37:29.696Z,44.51
2023-03-05T05:39:56.137Z,44.45
2023-03-05T05:42:22.537Z,44.31
2023-03-05T05:44:49.100Z,44.57
2023-03-05T05:47:15.664Z,43.13
2023-03-05T05:49:42.078Z,44.29
2023-03-05T05:52:08.496Z,43.55
2023-03-05T05:54:34.901Z,44.09
2023-03-05T05:57:01.329Z,43.79
2023-03-05T05:59:27.689Z,44.47
2023-03-05T06:01:54.127Z,43.48
2023-03-05T06:04:20.514Z,43.24
2023-03-05T06:06:46.912Z,43.47
2023-03-05T06:09:13.324Z,45.01
2023-03-05T06:11:39.730Z,44.19
2023-03-05T06:14:06.176Z,44.35
2023-03-05T06:16:32.668Z,44.00
2023-03-05T06:18:59.095Z,44.27
2023-03-05T06:21:25.496Z,44.57
2023-03-05T06:23:51.929Z,45.39
2023-03-05T06:26:18.551Z,44.95
2023-03-05T06:28:44.945Z,43.48
2023-03-05T06:31:11.433Z,44.81
2023-03-05T06:33:37.856Z,45.39
2023-03-05T06:36:04.258Z,44.76
2023-03-05T06:38:30.670Z,45.25
2023-03-05T06:40:57.057Z,45.41
2023-03-05T06:43:23.451Z,44.55
2023-03-05T06:45:51.166Z,45.25
2023-03-05T06:48:17.574Z,44.44
2023-03-05T06:50:43.991Z,45.39
2023-03-05T06:53:10.401Z,43.84
2023-03-05T06:55:36.878Z,44.89
2023-03-05T06:58:03.272Z,45.53
2023-03-05T07:00:29.807Z,44.47
2023-03-05T07:02:56.291Z,45.35
2023-03-05T07:05:22.716Z,45.26
2023-03-05T07:07:49.248Z,45.23
2023-03-05T07:10:15.696Z,46.01
2023-03-05T07:12:43.520Z,45.01
2023-03-05T07:15:10.010Z,45.57
2023-03-05T07:17:36.464Z,45.69
2023-03-05T07:20:02.897Z,45.80
2023-03-05T07:22:29.295Z,45.16
2023-03-05T07:24:55.690Z,45.85
2023-03-05T07:27:22.188Z,44.63
2023-03-05T07:29:49.039Z,43.98
2023-03-05T07:32:15.640Z,44.31
2023-03-05T07:34:42.046Z,43.93
2023-03-05T07:37:08.449Z,44.27
2023-03-05T07:39:34.891Z,44.92
2023-03-05T07:42:01.370Z,45.81
2023-03-05T07:44:27.939Z,44.74
2023-03-05T07:46:54.468Z,44.66
2023-03-05T07:49:20.871Z,44.05
2023-03-05T07:51:47.323Z,44.39
2023-03-05T07:54:13.759Z,44.93
2023-03-05T07:56:40.226Z,45.11
2023-03-05T07:59:06.746Z,44.34
2023-03-05T08:01:33.226Z,44.35
2023-03-05T08:03:59.702Z,44.36
2023-03-05T08:06:26.215Z,45.44
2023-03-05T08:08:52.694Z,44.15
2023-03-05T08:11:19.081Z,44.70
2023-03-05T08:13:45.505Z,46.28
2023-03-05T08:16:11.987Z,43.71
2023-03-05T08:18:38.378Z,44.47
2023-03-05T08:21:05.023Z,44.68
2023-03-05T08:23:31.445Z,46.21
2023-03-05T08:25:57.913Z,45.76
2023-03-05T08:28:24.339Z,44.95
2023-03-05T08:30:50.783Z,46.64
2023-03-05T08:33:17.238Z,46.07
2023-03-05T08:35:43.744Z,46.36
2023-03-05T08:38:10.143Z,46.22
2023-03-05T08:40:36.526Z,46.18
2023-03-05T08:43:02.920Z,46.83
2023-03-05T08:45:29.518Z,45.40
2023-03-05T08:47:55.999Z,45.47
2023-03-05T08:50:22.433Z,47.20
2023-03-05T08:52:48.912Z,46.25
2023-03-05T08:55:15.468Z,45.83
2023-03-05T08:57:41.875Z,46.23
2023-03-05T09:00:08.293Z,46.05
2023-03-05T09:02:34.883Z,46.79
2023-03-05T09:05:01.308Z,46.66
2023-03-05T09:07:27.752Z,46.82
2023-03-05T09:09:54.149Z,46.65
2023-03-05T09:12:20.635Z,46.39
2023-03-05T09:14:47.066Z,47.52
2023-03-05T09:17:13.450Z,45.99
2023-03-05T09:19:39.881Z,47.11
2023-03-05T09:22:06.353Z,46.51
2023-03-05T09:24:32.882Z,45.41
2023-03-05T09:26:59.291Z,45.91
2023-03-05T09:29:25.754Z,45.48
2023-03-05T09:31:52.207Z,45.96
2023-03-05T09:34:18.933Z,46.59
2023-03-05T09:36:45.370Z,46.78
2023-03-05T09:39:11.754Z,44.86
2023-03-05T09:41:38.383Z,45.54
2023-03-05T09:44:07.728Z,46.31
2023-03-05T09:46:34.146Z,45.62
2023-03-05T09:49:00.537Z,46.01
2023-03-05T09:51:27.163Z,45.48
2023-03-05T09:53:53.737Z,45.87
2023-03-05T09:56:20.282Z,45.33
2023-03-05T09:58:46.692Z,45.59
2023-03-05T10:01:13.075Z,44.66
2023-03-05T10:03:39.656Z,44.60
2023-03-05T10:06:06.387Z,44.79
2023-03-05T10:08:32.881Z,46.76
2023-03-05T10:10:59.374Z,45.44
2023-03-05T10:13:25.905Z,45.31
2023-03-05T10:15:52.346Z,45.53
2023-03-05T10:18:18.974Z,44.40
2023-03-05T10:20:45.422Z,43.50
2023-03-05T10:23:11.866Z,44.22
2023-03-05T10:25:38.525Z,46.04
2023-03-05T10:28:04.911Z,45.59
2023-03-05T10:30:31.323Z,43.58
2023-03-05T10:32:57.953Z,45.03
2023-03-05T10:35:24.669Z,44.32
2023-03-05T10:37:51.850Z,44.84
2023-03-05T10:40:18.414Z,46.13
2023-03-05T10:42:44.810Z,45.56
2023-03-05T10:45:13.217Z,46.43
2023-03-05T10:47:40.323Z,45.56
2023-03-05T10:50:06.762Z,45.04
2023-03-05T10:52:33.526Z,45.27
2023-03-05T10:55:00.022Z,44.84
2023-03-05T10:57:26.534Z,46.10
2023-03-05T10:59:53.018Z,45.40
2023-03-05T11:02:19.438Z,44.94
2023-03-05T11:04:46.062Z,44.08
2023-03-05T11:07:12.463Z,44.24
2023-03-05T11:09:39.048Z,44.23
2023-03-05T11:12:05.624Z,44.43
2023-03-05T11:14:32.229Z,44.31
2023-03-05T11:16:58.633Z,45.30
2023-03-05T11:19:25.096Z,44.57
2023-03-05T11:21:51.808Z,45.19
2023-03-05T11:24:18.314Z,44.06
2023-03-05T11:26:44.860Z,44.54
2023-03-05T11:29:11.296Z,43.79
2023-03-05T11:31:37.732Z,44.31
2023-03-05T11:34:05.920Z,44.26
2023-03-05T11:36:32.441Z,44.12
2023-03-05T11:39:01.052Z,45.38
2023-03-05T11:41:27.446Z,44.29
2023-03-05T11:43:53.898Z,42.81
2023-03-05T11:46:20.551Z,43.12
2023-03-05T11:48:47.050Z,41.64
2023-03-05T11:51:13.444Z,42.30
2023-03-05T11:53:39.891Z,40.87
2023-03-05T11:56:06.403Z,41.18
2023-03-05T11:58:32.894Z,42.62
2023-03-05T12:00:59.496Z,42.26
2023-03-05T12:03:25.927Z,42.43
2023-03-05T12:05:52.351Z,43.85
2023-03-05T12:08:18.766Z,43.80
2023-03-05T12:10:45.372Z,43.65
2023-03-05T12:13:11.773Z,43.46
2023-03-05T12:15:38.295Z,44.49
2023-03-05T12:18:04.729Z,43.20
2023-03-05T12:20:31.320Z,42.17
2023-03-05T12:22:57.776Z,42.20
2023-03-05T12:25:24.233Z,43.22
2023-03-05T12:27:50.600Z,42.24
2023-03-05T12:30:16.991Z,41.95
2023-03-05T12:32:43.540Z,43.15
2023-03-05T12:35:10.054Z,43.01
2023-03-05T12:37:36.460Z,42.84
2023-03-05T12:40:02.833Z,42.86
2023-03-05T12:42:29.235Z,42.09
2023-03-05T12:44:55.617Z,43.81
2023-03-05T12:47:22.064Z,44.33
2023-03-05T12:49:48.496Z,44.39
2023-03-05T12:52:15.837Z,43.01
2023-03-05T12:54:42.266Z,43.80
2023-03-05T12:57:08.690Z,43.24
2023-03-05T12:59:35.090Z,43.37
2023-03-05T13:02:01.714Z,42.58
2023-03-05T13:04:28.452Z,43.83
2023-03-05T13:06:54.900Z,42.69
2023-03-05T13:09:21.391Z,42.44
2023-03-05T13:11:47.906Z,43.20
2023-03-05T13:14:14.589Z,41.82
2023-03-05T13:16:41.081Z,42.67
2023-03-05T13:19:07.721Z,43.27
2023-03-05T13:21:34.391Z,42.16
2023-03-05T13:24:00.807Z,42.96
2023-03-05T13:26:27.215Z,44.05
2023-03-05T13:28:53.604Z,44.88
2023-03-05T13:31:20.149Z,43.77
2023-03-05T13:33:46.583Z,43.59
2023-03-05T13:36:13.163Z,43.70
2023-03-05T13:38:39.576Z,43.70
2023-03-05T13:41:06.006Z,43.52
2023-03-05T13:43:32.413Z,42.62
2023-03-05T13:46:02.057Z,42.16
2023-03-05T13:48:28.564Z,42.94
2023-03-05T13:50:55.077Z,42.61
2023-03-05T13:53:21.839Z,43.32
2023-03-05T13:55:48.324Z,42.54
2023-03-05T13:58:14.700Z,43.03
2023-03-05T14:00:41.236Z,41.81
2023-03-05T14:03:07.634Z,42.21
2023-03-05T14:05:34.032Z,41.84
2023-03-05T14:08:00.457Z,41.66
2023-03-05T14:10:26.958Z,43.04
2023-03-05T14:12:53.438Z,43.31
2023-03-05T14:15:19.869Z,43.09
2023-03-05T14:17:46.976Z,43.03
2023-03-05T14:20:13.414Z,42.39
2023-03-05T14:22:39.862Z,41.50
2023-03-05T14:25:06.270Z,42.24
2023-03-05T14:27:32.738Z,42.46
2023-03-05T14:29:59.258Z,43.59
2023-03-05T14:32:25.706Z,43.59
2023-03-05T14:34:52.085Z,42.18
2023-03-05T14:37:18.723Z,43.28
2023-03-05T14:39:46.514Z,42.79
2023-03-05T14:42:13.193Z,41.96
2023-03-05T14:44:39.643Z,42.44
2023-03-05T14:47:06.112Z,42.04
2023-03-05T14:49:32.621Z,43.24
2023-03-05T14:51:59.305Z,42.47
2023-03-05T14:54:25.885Z,43.22
2023-03-05T14:56:52.315Z,41.67
2023-03-05T14:59:18.734Z,43.21
2023-03-05T15:01:45.197Z,44.99
2023-03-05T15:04:11.860Z,43.74
2023-03-05T15:06:38.252Z,44.10
2023-03-05T15:09:04.695Z,43.76
2023-03-05T15:11:31.117Z,42.72
2023-03-05T15:13:57.725Z,43.34
2023-03-05T15:16:24.380Z,43.82
2023-03-05T15:18:50.936Z,43.29
2023-03-05T15:21:17.436Z,42.28
2023-03-05T15:23:43.892Z,41.08
2023-03-05T15:26:10.298Z,41.56
2023-03-05T15:28:36.817Z,41.64
2023-03-05T15:31:03.281Z,41.08
2023-03-05T15:33:29.748Z,41.80
2023-03-05T15:35:56.192Z,42.26
2023-03-05T15:38:22.670Z,40.14
2023-03-05T15:40:49.103Z,41.85
2023-03-05T15:43:15.549Z,41.93
2023-03-05T15:45:41.958Z,41.72
2023-03-05T15:48:08.467Z,41.19
2023-03-05T15:50:35.041Z,42.29
2023-03-05T15:53:01.830Z,43.49
2023-03-05T15:55:28.237Z,46.20
2023-03-05T15:57:54.656Z,45.38
2023-03-05T16:00:22.092Z,52.17
2023-03-05T16:02:50.134Z,43.72
2023-03-05T16:05:16.643Z,43.26
2023-03-05T16:07:43.240Z,44.12
2023-03-05T16:10:09.717Z,43.71
2023-03-05T16:12:36.270Z,43.07
2023-03-05T16:15:02.903Z,43.16
2023-03-05T16:17:29.531Z,43.50
2023-03-05T16:19:55.992Z,43.11
2023-03-05T16:22:22.686Z,43.50
2023-03-05T16:24:49.466Z,44.29
2023-03-05T16:27:15.972Z,44.60
2023-03-05T16:29:42.721Z,43.93
2023-03-05T16:32:09.817Z,42.12
2023-03-05T16:34:36.513Z,41.79
2023-03-05T16:37:03.286Z,41.61
2023-03-05T16:39:29.698Z,42.16
2023-03-05T16:41:56.110Z,41.78
2023-03-05T16:44:22.618Z,43.14
2023-03-05T16:46:49.324Z,42.19
2023-03-05T16:49:15.834Z,42.77
2023-03-05T16:51:42.503Z,43.16
2023-03-05T16:54:10.161Z,42.50
2023-03-05T16:56:37.086Z,43.82
2023-03-05T16:59:03.564Z,43.34
2023-03-05T17:01:30.072Z,43.83
2023-03-05T17:03:56.529Z,42.88
2023-03-05T17:06:23.072Z,41.97
2023-03-05T17:08:49.603Z,42.67
2023-03-05T17:11:16.063Z,43.18
2023-03-05T17:13:42.701Z,42.75
2023-03-05T17:16:09.231Z,42.68
2023-03-05T17:18:35.644Z,42.98
2023-03-05T17:21:02.402Z,42.18
2023-03-05T17:23:28.895Z,41.65
2023-03-05T17:25:55.309Z,42.83
2023-03-05T17:28:21.693Z,42.17
2023-03-05T17:30:48.110Z,42.15
2023-03-05T17:33:14.504Z,42.82
2023-03-05T17:35:40.961Z,41.23
2023-03-05T17:38:07.483Z,40.78
2023-03-05T17:40:33.997Z,41.63
2023-03-05T17:43:02.467Z,42.17
2023-03-05T17:45:28.945Z,40.96
2023-03-05T17:47:56.289Z,42.04
2023-03-05T17:50:24.270Z,42.18
2023-03-05T17:52:50.742Z,41.74
2023-03-05T17:55:17.168Z,40.69
2023-03-05T17:57:43.818Z,42.35
2023-03-05T18:00:10.242Z,42.25
2023-03-05T18:02:36.648Z,42.07
2023-03-05T18:05:04.220Z,41.89
2023-03-05T18:07:30.868Z,40.95
2023-03-05T18:09:57.636Z,41.48
2023-03-05T18:12:24.398Z,40.82
2023-03-05T18:14:50.837Z,40.89
2023-03-05T18:17:17.320Z,40.43
2023-03-05T18:19:43.873Z,40.91
2023-03-05T18:22:10.337Z,42.03
2023-03-05T18:24:36.757Z,42.67
2023-03-05T18:27:03.258Z,44.09
2023-03-05T18:29:29.738Z,42.94
2023-03-05T18:31:56.314Z,42.61
2023-03-05T18:34:22.898Z,42.41
2023-03-05T18:36:49.403Z,42.15
2023-03-05T18:39:15.897Z,41.48
2023-03-05T18:41:44.650Z,41.88
2023-03-05T18:44:11.587Z,42.95
2023-03-05T18:46:38.494Z,43.68
2023-03-05T18:49:05.163Z,42.28
2023-03-05T18:51:32.033Z,42.52
2023-03-05T18:53:58.877Z,41.58
2023-03-05T18:56:25.464Z,41.87
2023-03-05T18:58:52.008Z,42.33
2023-03-05T19:01:18.461Z,42.94
2023-03-05T19:03:45.150Z,44.37
2023-03-05T19:06:13.269Z,44.01
2023-03-05T19:08:39.859Z,44.65
2023-03-05T19:11:06.266Z,45.14
2023-03-05T19:13:32.830Z,45.12
2023-03-05T19:15:59.510Z,44.90
2023-03-05T19:18:26.003Z,43.91
2023-03-05T19:20:52.577Z,43.20
2023-03-05T19:23:19.250Z,44.03
2023-03-05T19:25:45.790Z,42.99
2023-03-05T19:28:14.219Z,43.10
2023-03-05T19:30:40.701Z,44.00
2023-03-05T19:33:07.338Z,44.83
2023-03-05T19:35:33.950Z,46.65
2023-03-05T19:38:00.556Z,47.82
2023-03-05T19:40:27.141Z,49.69
2023-03-05T19:42:56.662Z,50.78
2023-03-05T19:45:23.388Z,49.51
2023-03-05T19:47:50.038Z,50.03
2023-03-05T19:50:21.752Z,50.83
2023-03-05T19:52:48.214Z,50.40
2023-03-05T19:55:16.986Z,50.59
2023-03-05T19:57:43.491Z,50.54
2023-03-05T20:00:10.287Z,50.45
2023-03-05T20:02:36.883Z,51.41
2023-03-05T20:05:03.563Z,53.16
2023-03-05T20:07:30.245Z,54.09
2023-03-05T20:09:56.726Z,53.78
2023-03-05T20:12:23.497Z,52.77
2023-03-05T20:14:50.059Z,52.97
2023-03-05T20:17:19.574Z,54.14
2023-03-05T20:19:46.103Z,54.48
2023-03-05T20:22:12.686Z,53.29
2023-03-05T20:24:39.188Z,54.22
2023-03-05T20:27:05.755Z,53.89
2023-03-05T20:29:32.293Z,55.14
2023-03-05T20:32:01.830Z,53.47
2023-03-05T20:34:28.303Z,54.10
2023-03-05T20:36:54.837Z,53.86
2023-03-05T20:39:21.334Z,53.85
2023-03-05T20:41:59.511Z,56.47
2023-03-05T20:44:29.106Z,56.28
2023-03-05T20:46:57.250Z,52.63
2023-03-05T20:49:26.704Z,58.40
2023-03-05T20:51:55.346Z,62.94
2023-03-05T20:54:22.084Z,94.26
2023-03-05T20:56:48.764Z,52.74
2023-03-05T20:59:15.558Z,55.05
2023-03-05T21:01:42.470Z,53.34
2023-03-05T21:04:09.170Z,53.46
2023-03-05T21:06:36.325Z,53.94
2023-03-05T21:09:02.946Z,54.26
2023-03-05T21:11:29.724Z,54.50
2023-03-05T21:13:56.382Z,55.23
2023-03-05T21:16:23.443Z,54.85
2023-03-05T21:18:50.124Z,54.43
2023-03-05T21:21:16.545Z,53.61
2023-03-05T21:23:43.227Z,52.56
2023-03-05T21:26:10.027Z,52.71
2023-03-05T21:28:36.494Z,52.85
2023-03-05T21:31:05.607Z,51.55
2023-03-05T21:33:32.213Z,54.60
2023-03-05T21:35:58.967Z,54.62
2023-03-05T21:38:25.411Z,53.52
2023-03-05T21:40:52.486Z,54.11
2023-03-05T21:43:19.560Z,55.00
2023-03-05T21:45:46.131Z,54.83
2023-03-05T21:48:13.131Z,54.68
2023-03-05T21:50:39.902Z,54.88
2023-03-05T21:53:06.908Z,54.55
2023-03-05T21:55:33.650Z,55.46
2023-03-05T21:58:00.278Z,53.80
2023-03-05T22:00:26.729Z,53.77
2023-03-05T22:02:56.181Z,52.86
2023-03-05T22:05:23.150Z,52.64
2023-03-05T22:07:49.757Z,53.99
2023-03-05T22:10:16.521Z,54.33
2023-03-05T22:12:43.050Z,53.07
2023-03-05T22:15:09.525Z,54.16
2023-03-05T22:17:37.900Z,53.45
2023-03-05T22:20:04.410Z,52.10
2023-03-05T22:22:31.042Z,53.15
2023-03-05T22:24:57.611Z,51.67
2023-03-05T22:27:29.069Z,52.06
2023-03-05T22:29:55.763Z,51.62
2023-03-05T22:32:22.263Z,51.68
2023-03-05T22:34:48.759Z,51.24
2023-03-05T22:37:15.793Z,51.58
2023-03-05T22:39:42.252Z,52.30
2023-03-05T22:42:08.685Z,52.15
2023-03-05T22:44:41.625Z,49.84
2023-03-05T22:47:08.090Z,50.84
2023-03-05T22:49:34.858Z,50.39
2023-03-05T22:52:01.573Z,50.73
2023-03-05T22:54:28.397Z,51.21
2023-03-05T22:56:55.110Z,51.08
2023-03-05T22:59:21.776Z,51.25
2023-03-05T23:01:48.508Z,51.06
2023-03-05T23:04:16.205Z,51.87
2023-03-05T23:06:43.363Z,52.40
2023-03-05T23:09:10.147Z,50.85
2023-03-05T23:11:36.773Z,50.81
2023-03-05T23:14:03.466Z,51.09
2023-03-05T23:16:29.994Z,51.95
2023-03-05T23:18:56.754Z,51.53
2023-03-05T23:21:24.090Z,50.50
2023-03-05T23:23:50.958Z,51.59
2023-03-05T23:26:17.999Z,51.66
2023-03-05T23:28:44.816Z,51.85
2023-03-05T23:31:11.512Z,51.91
2023-03-05T23:33:38.091Z,50.65
2023-03-05T23:36:04.732Z,50.39
2023-03-05T23:38:31.154Z,51.02
2023-03-05T23:41:00.789Z,49.55
2023-03-05T23:43:29.498Z,50.66
2023-03-05T23:45:56.170Z,51.29
2023-03-05T23:48:22.833Z,50.65
2023-03-05T23:50:49.466Z,50.21
2023-03-05T23:53:15.856Z,51.47
2023-03-05T23:55:42.256Z,53.10
2023-03-05T23:58:10.817Z,53.01
